Terminal Aerodrome Forecast
Issued by NWS Wilmington, OH

Current Version | Previous Version | Graphics & Text | Print | Product List | Glossary On
Versions: 1 2 3 4 5 6 7 8 9 10 11 12 13 14 15 16 17 18 19 20 21 22 23 24 25 26 27 28
000
FTUS41 KILN 132300
TAFCVG
TAF
KCVG 132335Z 1400/1506 03004KT P6SM FEW045
     FM140200 04004KT P6SM SKC
     FM140900 05004KT P6SM SCT250
     FM141400 VRB04KT P6SM SCT250
     FM142300 00000KT P6SM SKC=

USA.gov is the U.S. government's official web portal to all federal, state and local government web resources and services.